Time;durP1;ratioP1;P1;durP2;ratioP2;P2;SDS_P1;SDS_P2;PMS_P1;PMS_P2;Temp;Humidity;BMP_temperature;BMP_pressure;BME280_temperature;BME280_humidity;BME280_pressure;Samples;Min_cycle;Max_cycle;Signal;HPM_P1;HPM_P2
2022/12/15 00:38:44;;;;;;;120.47;47.93;;;;;;;-7.76;96.61;99362.15;3514016;82;26555;-79
2022/12/15 00:43:46;;;;;;;117.03;48.07;;;;;;;-7.86;96.46;99373.48;3504980;82;99366;-79
2022/12/15 00:48:47;;;;;;;132.03;46.93;;;;;;;-7.94;96.65;99360.21;3513768;82;35397;-79
2022/12/15 01:20:26;;;;;;;115.43;46.47;;;;;;;-8.16;96.39;99393.78;3517858;82;26364;-79
2022/12/15 01:25:27;;;;;;;114.37;45.83;;;;;;;-8.25;96.35;99382.14;3508601;81;99019;-78
2022/12/15 01:30:28;;;;;;;113.63;49.87;;;;;;;-8.28;96.56;99367.48;3514948;82;34882;-79
2022/12/15 01:35:29;;;;;;;117.93;45.10;;;;;;;-8.33;96.61;99363.55;3514018;82;99155;-78
2022/12/15 01:40:45;;;;;;;115.80;45.67;;;;;;;-8.37;96.65;99377.70;3534185;82;35106;-78
2022/12/15 01:45:58;;;;;;;;;;;;;;;-8.40;96.47;99388.95;3529686;81;98764;-78
2022/12/15 01:51:23;;;;;;;145.50;53.57;;;;;;;-8.44;96.64;99398.58;3523689;82;84786;-78
2022/12/15 01:56:26;;;;;;;149.40;57.00;;;;;;;-8.49;96.51;99394.09;3513354;82;25823;-78
2022/12/15 02:01:28;;;;;;;149.32;56.92;;;;;;;-8.52;96.56;99403.16;3526260;82;99099;-78
2022/12/15 02:06:29;;;;;;;142.30;56.00;;;;;;;-8.53;96.55;99405.05;3528497;82;25925;-77
2022/12/15 02:11:35;;;;;;;132.60;49.60;;;;;;;-8.56;96.58;99412.81;3526522;82;99176;-79
2022/12/15 02:16:57;;;;;;;138.87;53.87;;;;;;;-8.61;96.32;99410.95;3532466;82;26579;-78
2022/12/15 02:22:19;;;;;;;144.77;51.60;;;;;;;-8.63;96.47;99429.63;3469164;83;99146;-78
2022/12/15 02:27:55;;;;;;;130.50;51.50;;;;;;;-8.65;96.35;99429.13;3525597;82;26472;-77
2022/12/15 02:33:19;;;;;;;105.70;43.27;;;;;;;-8.73;96.16;99434.50;3508989;82;99118;-78
2022/12/15 02:38:34;;;;;;;117.07;46.47;;;;;;;-8.77;96.17;99430.00;3528031;82;26402;-79
2022/12/15 02:43:38;;;;;;;114.27;45.83;;;;;;;-8.81;96.30;99432.43;3529337;81;98891;-79
2022/12/15 02:49:31;;;;;;;110.97;45.90;;;;;;;-8.83;96.64;99451.87;3533354;82;26363;-79
2022/12/15 02:55:03;;;;;;;113.25;44.30;;;;;;;-8.83;96.71;99453.77;3522063;82;98995;-79
2022/12/15 03:00:10;;;;;;;117.03;48.03;;;;;;;-8.90;96.33;99451.95;3528906;82;25897;-79
2022/12/15 03:05:13;;;;;;;120.73;47.90;;;;;;;-8.91;96.53;99463.66;3524381;82;99041;-78
2022/12/15 03:10:14;;;;;;;101.33;41.07;;;;;;;-8.99;96.15;99454.91;3534851;82;26364;-78
2022/12/15 03:15:17;;;;;;;104.87;42.57;;;;;;;-9.06;95.95;99454.41;3526891;82;99124;-79
2022/12/15 03:20:18;;;;;;;117.43;44.60;;;;;;;-9.10;96.33;99464.80;3532734;82;26772;-79
2022/12/15 03:25:18;;;;;;;108.70;43.30;;;;;;;-9.09;96.39;99461.61;3525343;82;98990;-78
2022/12/15 03:30:19;;;;;;;120.07;45.87;;;;;;;-9.11;96.30;99461.88;3502050;82;35347;-78
2022/12/15 03:35:20;;;;;;;106.63;44.63;;;;;;;-9.14;96.18;99466.95;3529880;82;98712;-79
2022/12/15 03:40:21;;;;;;;108.90;42.83;;;;;;;-9.15;96.45;99463.52;3515248;82;35903;-79
2022/12/15 03:45:25;;;;;;;107.37;41.57;;;;;;;-9.15;96.35;99467.51;3508377;82;98816;-79
2022/12/15 03:50:28;;;;;;;120.77;47.10;;;;;;;-9.19;96.08;99464.31;3513460;82;26088;-79
2022/12/15 03:55:29;;;;;;;108.30;44.63;;;;;;;-9.23;96.22;99473.91;3507325;81;98686;-78
2022/12/15 04:00:30;;;;;;;109.40;42.83;;;;;;;-9.23;96.08;99488.03;3511965;82;36201;-78
2022/12/15 04:05:33;;;;;;;120.57;43.07;;;;;;;-9.24;96.12;99494.44;3504900;82;99076;-78
2022/12/15 04:10:34;;;;;;;102.80;42.17;;;;;;;-9.24;96.39;99512.27;3518804;82;27101;-78
2022/12/15 04:15:38;;;;;;;113.27;40.97;;;;;;;-9.28;95.84;99518.68;3508296;82;98963;-78
2022/12/15 04:20:39;;;;;;;105.73;41.93;;;;;;;-9.35;95.68;99515.51;3517319;82;26062;-78
2022/12/15 05:35:10;;;;;;;179.47;68.33;;;;;;;-9.71;95.69;99616.99;3515302;81;99003;-79
2022/12/15 05:40:11;;;;;;;168.97;64.03;;;;;;;-9.71;96.02;99629.75;3517403;82;34833;-79
2022/12/15 05:45:12;;;;;;;167.53;64.07;;;;;;;-9.73;96.20;99649.71;3506340;83;99059;-79
2022/12/15 05:50:13;;;;;;;164.27;58.03;;;;;;;-9.75;95.87;99658.50;3517898;82;34813;-80
2022/12/15 05:55:15;;;;;;;169.40;63.50;;;;;;;-9.76;95.99;99660.91;3509224;82;98912;-79
2022/12/15 06:00:16;;;;;;;154.60;57.40;;;;;;;-9.78;96.29;99668.33;3509817;83;34852;-80
2022/12/15 06:05:17;;;;;;;151.13;55.23;;;;;;;-9.96;96.18;99643.03;3484291;82;99037;-79
2022/12/15 06:10:18;;;;;;;143.40;53.15;;;;;;;-9.79;96.60;99674.20;3520206;81;35448;-78
2022/12/15 06:15:19;;;;;;;148.87;54.93;;;;;;;-9.78;96.49;99676.32;3511887;82;98846;-78
2022/12/15 06:20:19;;;;;;;189.93;65.73;;;;;;;-9.76;96.56;99688.30;3516703;82;35351;-78
2022/12/15 06:25:20;;;;;;;165.43;61.83;;;;;;;-9.81;96.37;99688.29;3505015;82;98954;-79
2022/12/15 06:30:21;;;;;;;139.67;56.13;;;;;;;-9.79;96.67;99700.02;3514500;82;33997;-79
2022/12/15 06:35:22;;;;;;;154.17;60.07;;;;;;;-9.80;96.75;99700.56;3505116;82;98917;-78
2022/12/15 06:40:23;;;;;;;157.37;58.73;;;;;;;-9.80;96.60;99705.89;3520542;82;32476;-77
2022/12/15 06:45:23;;;;;;;158.73;59.80;;;;;;;-9.80;96.54;99717.86;3524884;83;99307;-79
2022/12/15 06:50:24;;;;;;;145.72;55.45;;;;;;;-9.83;96.67;99705.58;3527559;83;32500;-77
2022/12/15 06:55:25;;;;;;;144.17;56.88;;;;;;;-9.83;96.85;99711.72;3517956;82;99431;-78
2022/12/15 07:00:26;;;;;;;132.13;54.10;;;;;;;-9.83;96.87;99715.71;3529817;82;32511;-78
2022/12/15 07:05:27;;;;;;;143.80;57.37;;;;;;;-9.82;96.95;99728.50;3502342;82;98941;-76
2022/12/15 07:10:28;;;;;;;157.60;64.40;;;;;;;-9.79;96.94;99740.75;3531085;82;31799;-79
2022/12/15 07:15:30;;;;;;;158.73;61.13;;;;;;;-9.83;96.94;99748.98;3525176;81;98737;-78
2022/12/15 07:20:32;;;;;;;162.00;63.10;;;;;;;-9.80;96.92;99756.45;3513435;83;27004;-78
2022/12/15 07:25:35;;;;;;;148.30;57.77;;;;;;;-9.79;96.85;99759.91;3520821;82;98864;-78
2022/12/15 07:30:36;;;;;;;142.27;56.60;;;;;;;-9.77;97.15;99770.56;3532935;83;28434;-79
2022/12/15 07:35:37;;;;;;;148.30;59.50;;;;;;;-9.72;97.78;99773.77;3527006;81;98988;-78
2022/12/15 07:40:38;;;;;;;152.93;64.37;;;;;;;-9.72;97.66;99785.73;3518248;82;25883;-78
2022/12/15 07:45:39;;;;;;;160.00;58.30;;;;;;;-9.68;97.77;99792.97;3508657;83;99340;-79
2022/12/15 07:50:40;;;;;;;153.87;62.03;;;;;;;-9.62;97.81;99805.23;3512531;82;25867;-78
2022/12/15 07:55:40;;;;;;;165.60;65.93;;;;;;;-9.59;98.05;99807.36;3507836;82;99284;-78
2022/12/15 08:00:41;;;;;;;137.50;59.37;;;;;;;-9.46;98.73;99806.88;3492920;83;25863;-78
2022/12/15 08:05:42;;;;;;;151.43;63.63;;;;;;;-9.38;98.79;99806.91;3508143;82;99278;-78
2022/12/15 08:10:43;;;;;;;163.53;68.17;;;;;;;-9.29;99.06;99811.97;3508687;82;25980;-78
2022/12/15 08:15:44;;;;;;;166.57;66.97;;;;;;;-9.17;99.55;99813.89;3511256;81;98997;-78
2022/12/15 08:20:45;;;;;;;168.67;69.30;;;;;;;-9.06;99.77;99819.50;3514606;82;33205;-76
2022/12/15 08:25:46;;;;;;;174.60;69.23;;;;;;;-8.91;100.00;99822.16;3489277;83;98682;-77
2022/12/15 08:30:48;;;;;;;181.47;71.77;;;;;;;-8.76;100.00;99827.00;3511902;82;32644;-78
2022/12/15 08:35:49;;;;;;;169.05;74.45;;;;;;;-8.53;100.00;99841.66;3508171;82;98954;-77
2022/12/15 08:40:50;;;;;;;170.73;72.97;;;;;;;-8.35;100.00;99855.26;3526376;82;33169;-78
2022/12/15 08:45:51;;;;;;;171.87;73.73;;;;;;;-8.18;100.00;99854.41;3523947;82;99049;-77
2022/12/15 08:50:57;;;;;;;184.37;76.83;;;;;;;-8.03;100.00;99857.58;3524755;82;30907;-77
2022/12/15 08:56:07;;;;;;;183.50;80.50;;;;;;;-7.87;100.00;99868.50;3529019;82;33481;-77
2022/12/15 09:01:19;;;;;;;183.20;76.93;;;;;;;-7.71;100.00;99880.75;3522907;82;99319;-77
2022/12/15 09:06:25;;;;;;;186.00;77.30;;;;;;;-7.55;100.00;99891.66;3531380;82;33229;-78
2022/12/15 09:11:28;;;;;;;253.40;94.03;;;;;;;-7.37;100.00;99895.09;3530655;82;99247;-79
2022/12/15 09:16:29;;;;;;;214.73;84.53;;;;;;;-7.20;100.00;99905.70;3528950;82;33191;-77
2022/12/15 09:21:30;;;;;;;175.72;79.70;;;;;;;-6.98;100.00;99898.66;3522874;82;99003;-78
2022/12/15 09:26:33;;;;;;;195.50;84.00;;;;;;;-6.77;100.00;99891.56;3531594;82;34403;-77
2022/12/15 09:31:36;;;;;;;170.80;77.58;;;;;;;-6.57;100.00;99894.65;3520956;82;99202;-78
2022/12/15 09:36:37;;;;;;;169.10;73.63;;;;;;;-6.37;100.00;99895.33;3527724;82;33248;-77
2022/12/15 09:41:39;;;;;;;188.43;81.80;;;;;;;-6.16;100.00;99891.38;3518078;81;99328;-78
2022/12/15 09:46:49;;;;;;;184.20;82.80;;;;;;;-5.93;100.00;99897.89;3513587;82;34155;-77
2022/12/15 09:52:00;;;;;;;196.83;87.27;;;;;;;-5.71;100.00;99911.58;3501657;82;99465;-78
2022/12/15 09:57:12;;;;;;;184.67;83.63;;;;;;;-5.57;100.00;99903.14;3508579;82;33273;-78
2022/12/15 10:02:50;;;;;;;172.10;76.77;;;;;;;-5.30;100.00;99918.91;3505124;82;99473;-79
2022/12/15 10:07:52;;;;;;;164.80;74.20;;;;;;;-5.10;100.00;99905.27;3506864;82;44187;-76
2022/12/15 10:13:00;;;;;;;148.65;69.27;;;;;;;-4.86;100.00;99909.26;3478371;83;99737;-78
2022/12/15 10:18:23;;;;;;;156.70;67.30;;;;;;;-4.66;100.00;99899.03;3500051;82;33313;-77
2022/12/15 10:23:24;;;;;;;137.60;61.03;;;;;;;-4.43;100.00;99897.38;3499184;82;100684;-79
2022/12/15 10:28:51;;;;;;;147.27;63.67;;;;;;;-4.22;100.00;99908.03;3507880;82;33264;-77
2022/12/15 10:34:06;;;;;;;133.80;60.12;;;;;;;-4.03;100.00;99910.97;3499399;82;99083;-77
2022/12/15 10:39:07;;;;;;;140.03;61.27;;;;;;;-3.83;100.00;99924.05;3510066;83;26604;-77
2022/12/15 10:44:25;;;;;;;144.80;66.77;;;;;;;-3.68;100.00;99928.36;3505833;81;99282;-76
2022/12/15 10:49:25;;;;;;;126.80;57.13;;;;;;;-3.55;100.00;99920.31;3516928;82;25985;-76
2022/12/15 10:54:34;;;;;;;125.03;59.93;;;;;;;-3.37;100.00;99920.00;3505956;82;99153;-78
2022/12/15 10:59:37;;;;;;;114.17;48.20;;;;;;;-3.23;100.00;99914.09;3514447;82;26501;-76
2022/12/15 11:04:38;;;;;;;88.47;41.30;;;;;;;-3.10;100.00;99914.63;3502493;82;99003;-77
2022/12/15 11:09:39;;;;;;;77.93;38.53;;;;;;;-3.02;100.00;99918.75;3512938;82;33903;-77
2022/12/15 11:14:49;;;;;;;61.13;26.93;;;;;;;-2.90;100.00;99915.00;3510156;81;98792;-77
2022/12/15 11:20:10;;;;;;;71.80;34.50;;;;;;;-2.84;100.00;99914.36;3511004;82;25974;-75
2022/12/15 11:25:24;;;;;;;76.15;33.10;;;;;;;-2.73;100.00;99912.48;3485449;82;99101;-77
2022/12/15 11:30:30;;;;;;;68.27;31.43;;;;;;;-2.65;100.00;99935.21;3510784;82;31266;-77
2022/12/15 11:36:08;;;;;;;70.90;32.60;;;;;;;-2.60;100.00;99945.88;3507916;81;98817;-77
2022/12/15 11:41:45;;;;;;;71.53;35.00;;;;;;;-2.59;100.00;99949.63;3514171;82;99061;-77
2022/12/15 11:47:00;;;;;;;69.87;32.83;;;;;;;-2.56;99.57;99947.69;3528285;82;26569;-78
2022/12/15 11:52:24;;;;;;;74.83;33.03;;;;;;;-2.52;99.34;99960.00;3520147;82;98981;-77
2022/12/15 11:57:41;;;;;;;70.37;33.00;;;;;;;-2.50;98.70;99963.98;3499111;82;33205;-78
2022/12/15 12:03:12;;;;;;;69.50;32.23;;;;;;;-2.54;98.43;99964.33;3523835;82;99047;-78
2022/12/15 12:08:38;;;;;;;61.43;27.17;;;;;;;-2.52;98.38;99983.67;3523140;82;25858;-77
2022/12/15 12:13:53;;;;;;;69.97;31.93;;;;;;;-2.49;98.08;99984.97;3525593;81;98672;-78
2022/12/15 12:19:14;;;;;;;75.13;35.23;;;;;;;-2.44;97.84;99972.73;3531130;82;26232;-78
2022/12/15 12:24:45;;;;;;;76.47;36.50;;;;;;;-2.41;97.54;99991.01;3526437;82;98900;-77
2022/12/15 12:29:53;;;;;;;80.30;37.57;;;;;;;-2.42;96.77;99997.47;3530527;82;33265;-78
2022/12/15 12:35:18;;;;;;;89.90;38.30;;;;;;;-2.49;96.54;99982.27;3507752;82;98723;-79
2022/12/15 12:40:42;;;;;;;83.80;38.33;;;;;;;-2.50;96.20;99994.97;3529070;82;26439;-77
2022/12/15 12:45:54;;;;;;;99.13;45.27;;;;;;;-2.56;96.35;99988.09;3525116;82;98640;-78
2022/12/15 12:51:30;;;;;;;93.03;41.40;;;;;;;-2.55;96.04;99995.60;3521577;82;99028;-78
2022/12/15 12:56:53;;;;;;;95.03;42.50;;;;;;;-2.57;96.01;100000.50;3526910;82;33107;-78
2022/12/15 13:01:56;;;;;;;85.87;38.00;;;;;;;-2.61;95.66;99990.89;3468238;82;99192;-77
2022/12/15 13:07:04;;;;;;;83.17;38.63;;;;;;;-2.63;95.51;100001.71;3481282;82;25824;-77
2022/12/15 13:12:39;;;;;;;88.80;40.43;;;;;;;-2.69;95.57;99997.53;3484884;83;99107;-76
2022/12/15 13:17:46;;;;;;;91.80;43.67;;;;;;;-2.68;95.73;100009.33;3440146;84;34411;-77
2022/12/15 13:22:47;;;;;;;;;;;;;;;-2.73;95.06;100022.89;3473736;82;98875;-77
2022/12/15 13:27:51;;;;;;;91.53;41.43;;;;;;;-2.79;94.96;100015.23;3470362;84;33219;-77
2022/12/15 13:33:16;;;;;;;93.67;42.17;;;;;;;-2.84;95.18;100022.84;3467904;84;99270;-76
2022/12/15 13:38:18;;;;;;;88.53;39.60;;;;;;;-2.88;95.16;100027.78;3477104;84;33505;-77
2022/12/15 13:43:36;;;;;;;87.20;40.00;;;;;;;-2.95;95.14;100029.52;3469478;84;99511;-77
2022/12/15 13:48:46;;;;;;;89.10;39.17;;;;;;;-2.96;95.38;100025.23;3466863;84;25920;-78
2022/12/15 13:53:56;;;;;;;89.30;37.80;;;;;;;-2.91;95.76;100031.05;3462796;82;99183;-77
2022/12/15 13:59:02;;;;;;;80.20;37.30;;;;;;;-2.94;95.64;100034.36;3452940;84;33889;-77
2022/12/15 14:04:14;;;;;;;71.87;34.67;;;;;;;-2.95;95.19;100045.66;3388277;85;99047;-77
2022/12/15 14:09:20;;;;;;;75.23;36.43;;;;;;;-3.03;95.27;100050.40;3417809;84;33263;-77
2022/12/15 14:14:26;;;;;;;74.37;34.05;;;;;;;-3.06;95.39;100040.78;3409010;84;99297;-77
2022/12/15 14:19:40;;;;;;;;;;;;;;;-3.06;95.74;100044.25;3424098;84;25865;-77
2022/12/15 14:24:44;;;;;;;77.93;37.17;;;;;;;-3.06;95.76;100044.81;3409031;84;84977;-78
2022/12/15 14:29:45;;;;;;;79.70;37.03;;;;;;;-3.07;96.00;100044.58;3408391;85;34328;-78
2022/12/15 14:34:49;;;;;;;80.83;38.33;;;;;;;-3.06;96.00;100044.81;3383296;85;98824;-78
2022/12/15 14:39:49;;;;;;;77.67;34.13;;;;;;;-3.07;95.91;100046.70;3405471;84;34253;-79
2022/12/15 14:44:51;;;;;;;87.67;37.33;;;;;;;-3.06;95.73;100040.78;3406428;84;98997;-78
2022/12/15 14:49:56;;;;;;;79.70;36.60;;;;;;;-3.12;95.59;100038.71;3408160;85;33322;-78
2022/12/15 14:55:00;;;;;;;74.77;33.57;;;;;;;-3.17;95.50;100049.56;3402652;84;99159;-78
2022/12/15 15:00:26;;;;;;;86.47;38.23;;;;;;;-3.21;95.70;100049.12;3442692;84;33866;-77
2022/12/15 15:05:27;;;;;;;80.90;38.25;;;;;;;-3.22;95.67;100049.65;3469363;82;99099;-79
2022/12/15 15:10:29;;;;;;;75.57;34.13;;;;;;;-3.25;95.65;100065.06;3475976;84;33731;-76
2022/12/15 15:15:30;;;;;;;80.10;36.97;;;;;;;-3.28;95.67;100065.62;3468579;82;99135;-77
2022/12/15 15:20:36;;;;;;;84.40;39.67;;;;;;;-3.33;95.53;100067.63;3485984;82;33550;-77
2022/12/15 15:25:53;;;;;;;86.73;39.80;;;;;;;-3.42;95.45;100066.69;3466274;84;98994;-77
2022/12/15 15:31:05;;;;;;;92.33;38.80;;;;;;;-3.53;95.56;100078.70;3473465;84;33191;-85
2022/12/15 15:36:07;;;;;;;83.63;37.40;;;;;;;-3.65;95.76;100090.45;3472313;84;25819;-84
2022/12/15 15:41:30;;;;;;;85.07;37.00;;;;;;;-3.69;96.05;100099.66;3474536;81;99175;-84
2022/12/15 15:46:34;;;;;;;79.87;34.37;;;;;;;-3.71;96.09;100099.13;3483488;82;33590;-85
2022/12/15 15:51:36;;;;;;;92.22;41.20;;;;;;;-3.73;96.35;100103.20;3477156;82;99070;-85
2022/12/15 15:56:38;;;;;;;104.43;41.17;;;;;;;-3.78;96.19;100108.11;3477843;84;26481;-85
2022/12/15 16:01:39;;;;;;;93.03;39.53;;;;;;;-3.84;96.35;100102.55;3479006;83;124938;-86
2022/12/15 16:06:40;;;;;;;92.00;38.67;;;;;;;-3.85;96.40;100104.99;3480357;84;26390;-84
2022/12/15 16:11:42;;;;;;;101.03;44.77;;;;;;;-3.90;96.56;100101.56;3471645;84;98807;-82
2022/12/15 16:16:43;;;;;;;89.77;41.50;;;;;;;-3.92;96.73;100111.28;3486559;84;32824;-83
2022/12/15 16:21:44;;;;;;;93.07;40.90;;;;;;;-3.96;96.95;100114.81;3466319;84;99360;-82
2022/12/15 16:26:49;;;;;;;97.50;40.90;;;;;;;-3.96;97.13;100114.28;3470106;84;33231;-84
2022/12/15 16:31:50;;;;;;;94.33;43.60;;;;;;;-3.97;97.37;100124.78;3463070;84;99058;-83
2022/12/15 16:36:51;;;;;;;86.40;40.00;;;;;;;-3.99;97.37;100135.56;3475893;84;33673;-84
2022/12/15 16:41:54;;;;;;;83.90;38.77;;;;;;;-4.02;97.23;100137.47;3466287;84;99137;-83
2022/12/15 16:46:55;;;;;;;84.37;34.07;;;;;;;-4.06;97.20;100137.78;3480091;84;33207;-84
2022/12/15 16:51:58;;;;;;;86.40;38.50;;;;;;;-4.08;97.33;100119.82;3470260;84;98866;-83
2022/12/15 16:56:59;;;;;;;84.30;37.50;;;;;;;-4.08;97.38;100126.53;3469519;84;26325;-83
2022/12/15 17:02:00;;;;;;;87.87;37.60;;;;;;;-4.06;97.59;100129.19;3472201;82;99049;-83
2022/12/15 17:07:01;;;;;;;90.53;37.17;;;;;;;-4.04;97.54;100124.87;3479889;84;33174;-83
2022/12/15 17:12:02;;;;;;;78.67;36.93;;;;;;;-4.05;97.43;100123.29;3477524;82;99042;-84
2022/12/15 17:17:15;;;;;;;78.93;36.87;;;;;;;-4.10;97.35;100128.16;3479322;82;33210;-85
2022/12/15 17:22:16;;;;;;;75.47;34.13;;;;;;;-4.10;97.43;100132.75;3475344;82;99279;-84
2022/12/15 17:27:26;;;;;;;77.83;34.50;;;;;;;-4.11;97.55;100144.03;3460909;82;33175;-84
2022/12/15 17:32:27;;;;;;;82.70;36.37;;;;;;;-4.08;97.42;100158.25;3456932;83;98965;-84
2022/12/15 17:37:28;;;;;;;85.73;36.83;;;;;;;-4.12;97.38;100167.97;3483830;82;33656;-84
2022/12/15 17:42:29;;;;;;;86.63;35.53;;;;;;;-4.17;97.37;100180.11;3474180;83;99174;-85
2022/12/15 17:47:29;;;;;;;79.90;35.27;;;;;;;-4.18;97.48;100181.20;3480680;84;31836;-84
2022/12/15 17:52:35;;;;;;;78.43;34.87;;;;;;;-4.17;97.36;100186.83;3482948;82;99040;-84
2022/12/15 17:57:36;;;;;;;82.57;34.77;;;;;;;-4.21;97.32;100182.33;3484889;82;25882;-83
2022/12/15 18:02:37;;;;;;;81.30;35.20;;;;;;;-4.23;97.56;100176.42;3473786;84;99023;-83
2022/12/15 18:07:37;;;;;;;78.73;33.40;;;;;;;-4.20;97.64;100174.52;3489508;82;33235;-83
2022/12/15 18:12:38;;;;;;;79.67;35.87;;;;;;;-4.22;97.52;100176.67;3480457;84;98906;-83
2022/12/15 18:17:39;;;;;;;79.30;35.50;;;;;;;-4.23;97.45;100177.77;3476873;84;31371;-84
2022/12/15 18:22:40;;;;;;;78.13;35.50;;;;;;;-4.24;97.26;100181.01;3475169;83;98850;-83
2022/12/15 18:27:41;;;;;;;88.87;36.77;;;;;;;-4.31;97.24;100177.06;3482362;82;28495;-83
2022/12/15 18:32:43;;;;;;;83.00;37.03;;;;;;;-4.37;97.15;100176.86;3470108;83;99062;-82
2022/12/15 18:37:44;;;;;;;85.13;36.27;;;;;;;-4.46;96.87;100191.45;3475488;84;28452;-83
2022/12/15 18:42:46;;;;;;;84.33;35.30;;;;;;;-4.56;97.02;100195.58;3472886;82;99476;-83
2022/12/15 18:47:49;;;;;;;81.80;36.77;;;;;;;-4.59;96.90;100202.84;3470661;83;33857;-84
2022/12/15 18:52:59;;;;;;;86.10;38.87;;;;;;;-4.81;96.39;100184.28;3468955;83;98789;-84
2022/12/15 18:58:01;;;;;;;84.23;40.20;;;;;;;-4.96;96.52;100175.80;3471825;84;33261;-84
2022/12/15 19:03:01;;;;;;;92.63;41.47;;;;;;;-5.05;97.00;100179.37;3455514;84;98078;-85
2022/12/15 19:08:10;;;;;;;95.60;40.43;;;;;;;-5.11;97.09;100184.52;3476942;82;33238;-82
2022/12/15 19:13:13;;;;;;;104.47;42.83;;;;;;;-5.23;96.53;100184.86;3441190;84;99115;-84
2022/12/15 19:23:36;;;;;;;147.70;67.73;;;;;;;-5.40;96.72;100201.88;3466831;82;99096;-85
2022/12/15 19:28:37;;;;;;;137.80;57.10;;;;;;;-5.56;96.77;100195.01;3479849;82;33136;-84
2022/12/15 19:33:38;;;;;;;177.57;74.83;;;;;;;-5.71;96.61;100191.62;3466195;82;99451;-85
2022/12/15 19:38:39;;;;;;;167.63;69.23;;;;;;;-5.77;96.87;100212.83;3478590;84;33262;-84
2022/12/15 19:43:41;;;;;;;162.20;63.97;;;;;;;-5.82;97.13;100208.33;3466162;84;99366;-83
2022/12/15 19:48:42;;;;;;;170.67;69.57;;;;;;;-5.95;96.61;100206.78;3467678;84;33185;-83
2022/12/15 19:53:45;;;;;;;170.83;71.47;;;;;;;-6.14;96.69;100196.40;3481812;83;99501;-85
2022/12/15 19:58:47;;;;;;;198.37;81.70;;;;;;;-6.18;96.52;100200.69;3469806;84;33189;-85
2022/12/15 20:03:51;;;;;;;170.33;68.23;;;;;;;-6.25;96.90;100206.35;3463410;84;99258;-84
2022/12/15 20:08:54;;;;;;;200.47;81.43;;;;;;;-6.38;96.76;100210.92;3458245;84;33247;-85
2022/12/15 20:13:56;;;;;;;190.13;75.50;;;;;;;-6.40;97.12;100216.28;3452122;83;99570;-78
2022/12/15 20:18:57;;;;;;;190.37;82.30;;;;;;;-6.52;96.60;100224.62;3458613;83;33186;-79
2022/12/15 20:24:04;;;;;;;186.27;76.30;;;;;;;-6.59;96.90;100217.41;3455549;84;99119;-79
2022/12/15 20:29:22;;;;;;;187.37;76.10;;;;;;;-6.68;96.94;100220.88;3455447;84;33246;-78
2022/12/15 20:34:23;;;;;;;171.37;71.17;;;;;;;-6.73;97.29;100225.71;3450546;83;99175;-78
2022/12/15 20:39:30;;;;;;;182.10;73.73;;;;;;;-6.86;96.89;100212.08;3431415;84;33444;-78
2022/12/15 20:44:31;;;;;;;183.20;73.33;;;;;;;-6.92;96.84;100216.61;3456097;83;99071;-77
2022/12/15 20:49:32;;;;;;;188.47;76.50;;;;;;;-6.99;97.07;100217.97;3456385;84;33172;-79
2022/12/15 20:54:33;;;;;;;176.50;77.40;;;;;;;-7.07;96.63;100234.02;3450426;83;99243;-80
2022/12/15 20:59:34;;;;;;;179.57;76.10;;;;;;;-7.14;97.13;100242.81;3455330;84;33291;-79
2022/12/15 21:04:34;;;;;;;180.20;73.95;;;;;;;-7.17;97.33;100230.51;3469280;82;99216;-80
2022/12/15 21:09:35;;;;;;;166.07;67.60;;;;;;;-7.21;97.01;100239.59;3479021;84;28711;-79
2022/12/15 21:14:36;;;;;;;172.87;69.13;;;;;;;-7.32;96.91;100231.30;3465375;82;99272;-79
2022/12/15 21:19:37;;;;;;;177.27;73.07;;;;;;;-7.35;97.00;100233.70;3471924;84;26536;-79
2022/12/15 21:24:38;;;;;;;148.83;61.77;;;;;;;-7.40;97.14;100235.84;3458268;84;99127;-78
2022/12/15 21:29:38;;;;;;;144.00;61.10;;;;;;;-7.49;96.86;100237.41;3484644;84;31548;-80
2022/12/15 21:34:39;;;;;;;164.37;67.03;;;;;;;-7.54;96.82;100234.73;3473125;83;99086;-81
2022/12/15 21:39:40;;;;;;;164.20;69.60;;;;;;;-7.57;97.34;100226.44;3474658;84;31506;-80
2022/12/15 21:44:42;;;;;;;155.80;63.77;;;;;;;-7.63;97.01;100216.81;3471006;82;99000;-80
2022/12/15 21:49:42;;;;;;;164.43;65.17;;;;;;;-7.67;96.85;100229.89;3478748;82;30343;-81
2022/12/15 21:54:43;;;;;;;175.90;66.77;;;;;;;-7.75;96.83;100231.73;3474984;81;98911;-79
2022/12/15 21:59:44;;;;;;;187.87;70.17;;;;;;;-7.84;97.12;100239.99;3476786;84;29059;-79
2022/12/15 22:04:47;;;;;;;196.70;72.57;;;;;;;-7.86;97.04;100244.77;3440019;84;99139;-78
2022/12/15 22:09:48;;;;;;;181.03;69.00;;;;;;;-7.92;97.02;100229.80;3462214;84;29863;-81
2022/12/15 22:14:49;;;;;;;176.07;70.97;;;;;;;-7.98;97.04;100232.18;3440809;84;98891;-81
2022/12/15 22:19:51;;;;;;;164.10;66.70;;;;;;;-7.99;97.50;100221.23;3465596;83;26867;-80
2022/12/15 22:24:51;;;;;;;160.17;63.57;;;;;;;-8.04;97.42;100207.86;3453493;83;99237;-81
2022/12/15 22:29:55;;;;;;;136.00;53.43;;;;;;;-8.04;98.01;100199.85;3459931;83;26529;-80
2022/12/15 22:34:56;;;;;;;118.90;46.67;;;;;;;-8.03;98.06;100190.77;3416355;83;99929;-79
2022/12/15 22:39:57;;;;;;;99.67;40.87;;;;;;;-8.06;97.94;100185.97;3466017;84;31234;-81
2022/12/15 22:44:58;;;;;;;125.33;48.42;;;;;;;-8.08;98.07;100173.95;3448993;83;99127;-81
2022/12/15 22:49:59;;;;;;;129.13;47.63;;;;;;;-8.12;98.38;100174.98;3465603;84;30773;-79
2022/12/15 22:55:00;;;;;;;121.27;49.63;;;;;;;-8.14;98.61;100192.31;3469140;83;99031;-81
2022/12/15 23:00:06;;;;;;;128.40;47.97;;;;;;;-8.15;98.93;100180.04;3468122;83;26376;-80
2022/12/15 23:05:08;;;;;;;121.37;48.33;;;;;;;-8.16;98.82;100188.59;3478096;82;99150;-80
2022/12/15 23:20:52;;;;;;;130.87;54.27;;;;;;;-8.21;99.27;100198.47;3476932;84;25768;-79
2022/12/15 23:25:54;;;;;;;137.27;55.20;;;;;;;-8.23;99.32;100192.59;3481934;82;98924;-80
2022/12/15 23:30:55;;;;;;;143.33;56.30;;;;;;;-8.23;99.32;100197.39;3473146;83;99387;-80
2022/12/15 23:35:58;;;;;;;141.10;53.93;;;;;;;-8.24;99.24;100203.80;3487510;82;29799;-81
2022/12/15 23:40:59;;;;;;;127.23;51.97;;;;;;;-8.26;99.28;100201.92;3477805;82;99142;-80
2022/12/15 23:46:04;;;;;;;122.40;48.70;;;;;;;-8.25;99.45;100213.38;3482501;82;32861;-81
2022/12/15 23:51:14;;;;;;;132.53;55.53;;;;;;;-8.27;99.46;100217.67;3473779;83;99220;-80
2022/12/15 23:56:22;;;;;;;130.30;57.00;;;;;;;-8.27;99.61;100227.02;3484948;84;27555;-81
